Latest Weather Observations for Gladstone Airport

IDQ60801

Issued at 11:31 pm EST Friday 12 February 2016 (issued every 30 minutes, with the page automatically refreshed every 10 minutes)

About weather observations | Map of weather stations | Latest weather observations for QLD | Other Formats
Station Details ID: 039326 Name: GLADSTONE AIRPORT Lat: -23.87 Lon: 151.22 Height: 16.6 m
Data from the previous 72 hours. | See also: Recent months at Gladstone Airport
Date/Time
EST
Temp
°C
App
Temp
°C
Dew
Point
Rel
Hum
%
Delta-T
°C
Wind Press
QNH
hPa
Press
MSL
hPa
Rain
since 9 am
mm
Dir
 
Spd
km/h
Gust
km/h
Spd
kts
Gust
kts
12/11:30pm 24.8 24.2 15.7 57 5.5 SSE 13 22 7 12 1010.0 1009.9 0.0
12/11:00pm 25.4 23.9 16.3 57 5.6 SE 19 30 10 16 1010.4 1010.3 0.0
12/10:30pm 25.5 24.2 16.9 59 5.3 SSE 19 30 10 16 1010.6 1010.5 0.0
12/10:00pm 25.9 24.9 17.5 59 5.3 SE 19 28 10 15 1010.6 1010.5 0.0
12/09:30pm 26.2 25.6 17.6 59 5.4 SE 17 28 9 15 1010.5 1010.4 0.0
12/09:00pm 26.2 27.2 18.6 63 4.8 SSE 11 19 6 10 1010.3 1010.2 0.0
12/08:30pm 26.7 26.3 18.8 62 5.1 SE 19 28 10 15 1010.1 1010.0 0.0
12/08:00pm 27.1 25.7 18.9 61 5.3 SE 24 35 13 19 1009.9 1009.8 0.0
12/07:30pm 27.2 25.6 19.3 62 5.1 ESE 26 39 14 21 1009.5 1009.4 0.0
12/07:00pm 27.3 26.5 20.1 64 4.7 ESE 24 30 13 16 1009.2 1009.1 0.0
12/06:30pm 27.6 26.7 20.7 66 4.6 ESE 26 35 14 19 1009.0 1008.9 0.0
12/06:00pm 28.0 26.7 20.6 64 4.9 ESE 28 39 15 21 1008.8 1008.7 0.0
12/05:30pm 28.6 26.1 19.8 59 5.8 ESE 32 44 17 24 1008.3 1008.2 0.0
12/05:00pm 29.6 27.3 20.2 57 6.2 E 32 39 17 21 1008.0 1007.9 0.0
12/04:30pm 29.5 26.8 19.2 54 6.7 E 32 39 17 21 1007.8 1007.7 0.0
12/04:00pm 30.2 28.5 19.9 54 6.8 E 28 35 15 19 1007.8 1007.7 0.0
12/03:30pm 30.5 28.5 19.2 51 7.4 E 28 35 15 19 1007.8 1007.7 0.0
12/03:00pm 30.5 28.5 19.2 51 7.4 E 28 35 15 19 1008.0 1007.9 0.0
12/02:30pm 30.7 29.0 19.7 52 7.2 ESE 28 37 15 20 1008.1 1008.0 0.0
12/02:00pm 30.6 29.2 18.7 49 7.7 E 24 32 13 17 1008.4 1008.3 0.0
12/01:30pm 30.6 29.9 19.6 51 7.2 E 22 30 12 16 1008.6 1008.5 0.0
12/01:00pm 30.0 29.2 18.1 49 7.6 E 19 26 10 14 1008.9 1008.8 0.0
12/12:30pm 29.3 28.5 18.4 51 7.0 E 20 28 11 15 1009.3 1009.2 0.0
12/12:00pm 29.7 29.7 18.2 50 7.4 ESE 15 28 8 15 1009.7 1009.6 0.0
12/11:30am 29.8 28.5 17.3 47 7.9 SE 20 28 11 15 1010.0 1009.9 0.0
12/11:00am 30.1 29.1 17.9 48 7.8 ESE 20 30 11 16 1010.3 1010.2 0.0
12/10:30am 28.6 27.4 17.5 51 7.0 SE 20 28 11 15 1010.6 1010.5 0.0
12/10:00am 28.6 26.6 17.5 51 7.0 SE 24 37 13 20 1010.9 1010.8 0.0
12/09:30am 27.8 25.9 16.7 50 6.9 SE 22 35 12 19 1011.1 1011.0 0.0
12/09:00am 27.4 25.9 17.8 55 6.1 SSE 22 37 12 20 1011.2 1011.1 0.0
12/08:30am 26.7 24.9 17.8 58 5.6 SE 24 35 13 19 1011.2 1011.1 0.0
12/08:00am 25.7 24.3 17.9 62 4.9 SSE 22 37 12 20 1011.2 1011.1 0.0
12/07:30am 25.3 25.0 18.2 64 4.5 SSE 17 28 9 15 1011.1 1011.0 0.0
12/07:00am 24.8 24.5 18.3 67 4.1 SSE 17 28 9 15 1011.0 1010.9 0.0
12/06:30am 23.9 24.3 18.1 70 3.6 SSE 13 24 7 13 1010.9 1010.8 0.0
12/06:00am 23.3 24.2 18.4 74 3.1 SSE 11 19 6 10 1010.4 1010.3 0.0
12/05:30am 23.1 24.0 18.4 75 3.0 SSE 11 19 6 10 1010.2 1010.1 0.0
12/05:00am 23.2 24.1 18.5 75 3.0 SSE 11 20 6 11 1010.0 1009.9 0.0
12/04:30am 23.4 24.4 18.7 75 3.0 SSE 11 19 6 10 1009.8 1009.7 0.0
12/04:00am 23.5 23.7 18.6 74 3.1 SSE 15 26 8 14 1009.8 1009.7 0.0
12/03:30am 23.6 24.2 18.5 73 3.2 SSE 13 20 7 11 1009.7 1009.6 0.0
12/03:00am 23.8 24.4 18.7 73 3.2 SSE 13 22 7 12 1009.6 1009.5 0.0
12/02:30am 23.8 23.9 18.4 72 3.4 SSE 15 20 8 11 1009.6 1009.5 0.0
12/02:00am 23.9 24.1 18.5 72 3.4 SSE 15 28 8 15 1010.1 1010.0 0.0
12/01:30am 23.9 24.4 18.3 71 3.5 S 13 20 7 11 1010.4 1010.3 0.0
12/01:00am 24.2 24.3 18.4 70 3.7 SSE 15 24 8 13 1010.6 1010.5 0.0
12/12:30am 24.3 24.6 18.0 68 4.0 SSE 13 19 7 10 1010.8 1010.7 0.0
12/12:00am 24.4 24.9 18.3 69 3.9 SSE 13 26 7 14 1010.9 1010.8 0.0
 
Date/Time
EST
Temp
°C
App
Temp
°C
Dew
Point
Rel
Hum
%
Delta-T
°C
Wind Press
QNH
hPa
Press
MSL
hPa
Rain
since 9 am
mm
Dir
 
Spd
km/h
Gust
km/h
Spd
kts
Gust
kts
11/11:30pm 24.7 25.2 18.4 68 4.0 SSE 13 24 7 13 1011.1 1011.0 0.0
11/11:00pm 25.1 25.7 18.5 67 4.2 SSE 13 20 7 11 1011.1 1011.0 0.0
11/10:30pm 25.2 25.7 18.4 66 4.3 SSE 13 20 7 11 1011.2 1011.1 0.0
11/10:00pm 25.3 26.6 18.5 66 4.3 SSE 9 17 5 9 1011.2 1011.1 0.0
11/09:30pm 25.9 26.5 18.6 64 4.6 SE 13 19 7 10 1011.2 1011.1 0.0
11/09:00pm 26.2 26.0 18.6 63 4.8 SE 17 28 9 15 1011.0 1010.9 0.0
11/08:30pm 26.6 26.0 18.5 61 5.2 SE 19 32 10 17 1010.6 1010.5 0.0
11/08:00pm 26.7 26.5 18.6 61 5.2 ESE 17 22 9 12 1010.4 1010.3 0.0
11/07:30pm 27.0 26.1 18.3 59 5.5 ESE 20 33 11 18 1010.1 1010.0 0.0
11/07:00pm 27.2 25.9 19.0 61 5.3 ESE 24 33 13 18 1009.7 1009.6 0.0
11/06:30pm 27.5 26.6 19.8 63 5.0 ESE 24 32 13 17 1009.4 1009.3 0.0
11/06:00pm 27.8 25.6 19.6 61 5.3 ESE 30 39 16 21 1009.1 1009.0 0.0
11/05:30pm 28.6 27.0 20.1 60 5.6 E 28 39 15 21 1008.8 1008.7 0.0
11/05:00pm 28.4 26.7 19.9 60 5.6 E 28 44 15 24 1008.5 1008.4 0.0
11/04:30pm 29.0 26.4 19.6 57 6.1 E 32 41 17 22 1008.3 1008.2 0.0
11/04:00pm 29.2 26.5 19.2 54 6.5 E 32 41 17 22 1008.1 1008.0 0.0
11/03:30pm 29.4 27.7 19.7 56 6.3 ESE 28 39 15 21 1008.0 1007.9 0.0
11/03:00pm 29.4 27.5 19.4 55 6.5 E 28 37 15 20 1008.1 1008.0 0.0
11/02:30pm 29.9 27.8 19.0 52 7.1 E 28 35 15 19 1008.2 1008.1 0.0
11/02:00pm 30.3 29.5 19.3 51 7.2 E 22 30 12 16 1008.5 1008.4 0.0
11/01:30pm 31.2 30.0 19.2 48 7.8 E 24 35 13 19 1008.7 1008.6 0.0
11/01:00pm 30.2 29.2 19.6 53 6.9 ENE 24 32 13 17 1009.1 1009.0 0.0
11/12:30pm 29.8 28.3 18.6 51 7.2 E 24 35 13 19 1009.4 1009.3 0.0
11/12:00pm 30.5 29.2 18.2 47 7.9 ESE 22 32 12 17 1009.7 1009.6 0.0
11/11:30am 30.2 29.2 18.0 48 7.8 SE 20 32 11 17 1010.2 1010.1 0.0
11/11:00am 29.7 28.8 18.2 50 7.4 SE 20 32 11 17 1010.7 1010.6 0.0
11/10:30am 29.8 29.1 18.3 50 7.4 SE 19 30 10 16 1010.9 1010.8 0.0
11/10:00am 28.7 27.2 17.6 51 7.0 SSE 22 33 12 18 1010.7 1010.6 0.0
11/09:30am 28.0 26.8 18.4 56 6.1 SE 22 30 12 16 1010.8 1010.7 0.0
11/09:00am 27.2 26.2 17.9 56 5.9 SSE 20 33 11 18 1010.9 1010.8 0.0
11/08:30am 26.8 26.4 18.1 59 5.5 SE 17 22 9 12 1011.0 1010.9 0.0
11/08:00am 26.0 25.3 18.2 62 4.9 SSE 19 28 10 15 1010.9 1010.8 0.0
11/07:30am 25.2 24.9 18.2 65 4.4 SSE 17 26 9 14 1011.0 1010.9 0.0
11/07:00am 24.3 24.7 18.2 68 3.8 SSE 13 22 7 12 1010.8 1010.7 0.0
11/06:30am 23.4 23.9 18.3 73 3.2 SSE 13 20 7 11 1010.6 1010.5 0.0
11/06:00am 22.8 23.2 18.1 75 2.9 SSE 13 20 7 11 1010.3 1010.2 0.0
11/05:30am 22.8 23.3 18.3 76 2.8 SSE 13 19 7 10 1010.0 1009.9 0.0
11/05:00am 22.9 23.3 18.2 75 2.9 SSE 13 24 7 13 1009.8 1009.7 0.0
11/04:30am 22.8 23.6 18.1 75 2.9 SSE 11 17 6 9 1009.7 1009.6 0.0
11/04:00am 22.9 23.3 18.2 75 2.9 SSE 13 20 7 11 1009.7 1009.6 0.0
11/03:30am 23.0 23.5 18.3 75 2.9 SSE 13 22 7 12 1009.5 1009.4 0.0
11/03:00am 23.1 23.6 18.4 75 3.0 SSE 13 20 7 11 1009.5 1009.4 0.0
11/02:30am 23.1 24.1 18.6 76 2.8 SSE 11 19 6 10 1009.6 1009.5 0.0
11/02:00am 23.2 24.1 18.5 75 3.0 SSE 11 17 6 9 1009.6 1009.5 0.0
11/01:30am 23.4 24.3 18.5 74 3.1 SSE 11 20 6 11 1009.8 1009.7 0.0
11/01:00am 23.7 23.9 18.6 73 3.2 SSE 15 22 8 12 1010.0 1009.9 0.0
11/12:30am 23.8 24.6 18.2 71 3.5 SSE 11 19 6 10 1010.4 1010.3 0.0
11/12:00am 23.9 24.3 18.1 70 3.6 SSE 13 17 7 9 1010.7 1010.6 0.0
 
Date/Time
EST
Temp
°C
App
Temp
°C
Dew
Point
Rel
Hum
%
Delta-T
°C
Wind Press
QNH
hPa
Press
MSL
hPa
Rain
since 9 am
mm
Dir
 
Spd
km/h
Gust
km/h
Spd
kts
Gust
kts
10/11:30pm 24.2 24.7 18.4 70 3.7 SSE 13 20 7 11 1011.1 1011.0 0.0
10/11:00pm 24.5 25.0 18.4 69 3.9 SE 13 19 7 10 1011.3 1011.2 0.0
10/10:30pm 24.8 25.4 18.5 68 4.0 SE 13 20 7 11 1011.5 1011.4 0.0
10/10:00pm 24.8 26.1 19.2 71 3.6 SSE 11 17 6 9 1011.7 1011.6 0.0
10/09:30pm 25.3 26.4 19.7 71 3.6 SE 13 19 7 10 1011.7 1011.6 0.0
10/09:00pm 25.6 25.6 19.7 70 3.8 SE 19 28 10 15 1011.6 1011.5 0.0
10/08:30pm 25.9 25.7 19.8 69 4.0 SE 20 33 11 18 1011.3 1011.2 0.0
10/08:00pm 26.2 26.6 19.8 68 4.2 SE 17 33 9 18 1011.1 1011.0 0.0
10/07:30pm 26.3 26.2 19.9 68 4.2 ESE 20 30 11 16 1010.7 1010.6 0.0
10/07:00pm 26.5 26.7 19.4 65 4.6 SE 17 24 9 13 1010.4 1010.3 0.0
10/06:30pm 27.0 26.9 18.8 60 5.3 SE 17 26 9 14 1010.0 1009.9 0.0
10/06:00pm 28.0 27.2 19.2 58 5.7 ESE 22 30 12 16 1009.5 1009.4 0.0
10/05:30pm 28.5 26.6 19.4 57 5.9 ESE 28 37 15 20 1009.4 1009.3 0.0
10/05:00pm 27.9 27.7 20.5 64 4.9 E 22 32 12 17 1009.2 1009.1 0.0
10/04:30pm 28.2 27.1 20.2 62 5.3 E 26 35 14 19 1009.0 1008.9 0.0
10/04:00pm 29.5 27.2 20.1 57 6.2 E 32 39 17 21 1008.8 1008.7 0.0
10/03:30pm 29.1 28.3 20.8 61 5.5 ENE 26 33 14 18 1008.7 1008.6 0.0
10/03:00pm 29.6 29.2 19.0 53 6.9 E 19 28 10 15 1008.7 1008.6 0.0
10/02:30pm 29.7 30.5 19.1 53 6.9 SE 13 20 7 11 1008.9 1008.8 0.0
10/02:00pm 29.4 29.8 19.1 54 6.7 SE 15 26 8 14 1009.3 1009.2 0.0
10/01:30pm 28.6 28.0 18.4 54 6.5 SE 19 32 10 17 1009.8 1009.7 0.0
10/01:00pm 28.3 27.4 17.8 53 6.7 SE 19 28 10 15 1010.4 1010.3 0.0
10/12:30pm 28.4 28.3 18.8 56 6.2 SE 17 26 9 14 1010.9 1010.8 0.0
10/12:00pm 27.7 27.0 18.7 58 5.8 SE 20 32 11 17 1011.3 1011.2 0.0
10/11:30am 28.7 27.5 18.5 54 6.5 ESE 22 30 12 16 1011.3 1011.2 0.0
10/11:00am 28.9 27.8 17.7 50 7.1 SE 20 28 11 15 1011.2 1011.1 0.0
10/10:30am 28.8 27.7 17.7 51 7.0 SE 20 37 11 20 1011.3 1011.2 0.0
10/10:00am 28.4 27.2 17.6 52 6.8 SE 20 33 11 18 1011.2 1011.1 0.0
10/09:30am 27.9 27.4 17.7 53 6.5 SE 17 32 9 17 1011.3 1011.2 0.0
10/09:00am 27.2 26.1 17.4 55 6.2 SSE 19 28 10 15 1011.4 1011.3 0.0
10/08:30am 27.0 26.7 18.3 59 5.5 SSE 17 28 9 15 1011.7 1011.6 0.0
10/08:00am 25.6 25.5 17.8 62 4.9 SSE 15 26 8 14 1011.6 1011.5 0.0
10/07:30am 24.3 23.8 17.8 67 4.1 SSE 17 28 9 15 1011.3 1011.2 0.0
10/07:00am 24.1 23.6 17.8 68 3.9 SSE 17 28 9 15 1011.1 1011.0 0.0
10/06:30am 23.6 23.5 17.8 70 3.6 SSE 15 24 8 13 1011.1 1011.0 0.0
10/06:00am 23.1 23.0 17.8 72 3.3 SSE 15 24 8 13 1010.7 1010.6 0.0
10/05:30am 22.9 22.7 17.6 72 3.3 SSE 15 20 8 11 1010.5 1010.4 0.0
10/05:00am 22.9 22.7 17.6 72 3.3 SSE 15 24 8 13 1010.3 1010.2 0.0
10/04:30am 22.8 22.9 17.5 72 3.3 SSE 13 22 7 12 1010.1 1010.0 0.0
10/04:00am 23.0 22.8 17.7 72 3.3 SSE 15 26 8 14 1010.0 1009.9 0.0
10/03:30am 23.0 22.8 17.5 71 3.4 SSE 15 20 8 11 1010.0 1009.9 0.0
10/03:00am 23.1 23.0 17.8 72 3.3 SSE 15 26 8 14 1010.1 1010.0 0.0
10/02:30am 23.2 22.9 17.4 70 3.6 SSE 15 24 8 13 1010.3 1010.2 0.0
10/02:00am 23.3 22.6 17.3 69 3.7 SSE 17 26 9 14 1010.5 1010.4 0.0
10/01:30am 23.4 22.6 17.2 68 3.8 SSE 17 24 9 13 1010.7 1010.6 0.0
10/01:00am 23.6 22.2 17.1 67 4.0 SSE 20 32 11 17 1011.1 1011.0 0.0
10/12:30am 23.6 23.1 16.9 66 4.1 SSE 15 20 8 11 1011.6 1011.5 0.0
10/12:00am 23.8 23.3 16.8 65 4.3 SSE 15 32 8 17 1012.1 1012.0 0.0

Other Formats:

Comma delimited format used in spreadsheet applications
http://www.bom.gov.au/fwo/IDQ60801/IDQ60801.94381.axf

JavaScript Object Notation format (JSON) in row-major order
http://www.bom.gov.au/fwo/IDQ60801/IDQ60801.94381.json